sensor_id;sensor_type;location;lat;lon;timestamp;temperature;humidity
75865;HTU21D;64510;46.704;38.274;2022-12-18T00:01:48;10.38;90.12
75865;HTU21D;64510;46.704;38.274;2022-12-18T00:04:22;10.37;90.01
75865;HTU21D;64510;46.704;38.274;2022-12-18T00:06:50;10.35;90.03
75865;HTU21D;64510;46.704;38.274;2022-12-18T00:09:16;10.30;90.04
75865;HTU21D;64510;46.704;38.274;2022-12-18T00:11:42;10.30;90.01
75865;HTU21D;64510;46.704;38.274;2022-12-18T00:14:10;10.29;89.92
75865;HTU21D;64510;46.704;38.274;2022-12-18T00:16:37;10.25;90.35
75865;HTU21D;64510;46.704;38.274;2022-12-18T00:19:03;10.25;90.09
75865;HTU21D;64510;46.704;38.274;2022-12-18T00:21:30;10.25;90.10
75865;HTU21D;64510;46.704;38.274;2022-12-18T00:23:57;10.25;90.09
75865;HTU21D;64510;46.704;38.274;2022-12-18T00:26:25;10.24;90.08
75865;HTU21D;64510;46.704;38.274;2022-12-18T00:28:58;10.22;90.08
75865;HTU21D;64510;46.704;38.274;2022-12-18T00:31:25;10.20;90.28
75865;HTU21D;64510;46.704;38.274;2022-12-18T00:33:56;10.22;90.10
75865;HTU21D;64510;46.704;38.274;2022-12-18T00:36:25;10.20;90.12
75865;HTU21D;64510;46.704;38.274;2022-12-18T00:38:53;10.18;90.13
75865;HTU21D;64510;46.704;38.274;2022-12-18T00:41:19;10.16;90.21
75865;HTU21D;64510;46.704;38.274;2022-12-18T00:44:05;10.15;90.11
75865;HTU21D;64510;46.704;38.274;2022-12-18T00:46:31;10.12;90.14
75865;HTU21D;64510;46.704;38.274;2022-12-18T00:48:58;10.11;89.95
75865;HTU21D;64510;46.704;38.274;2022-12-18T00:51:24;10.10;89.84
75865;HTU21D;64510;46.704;38.274;2022-12-18T00:53:52;10.06;89.99
75865;HTU21D;64510;46.704;38.274;2022-12-18T00:56:23;10.00;90.14
75865;HTU21D;64510;46.704;38.274;2022-12-18T00:58:50;9.95;90.36
75865;HTU21D;64510;46.704;38.274;2022-12-18T01:01:16;9.91;90.05
75865;HTU21D;64510;46.704;38.274;2022-12-18T01:03:43;9.85;90.08
75865;HTU21D;64510;46.704;38.274;2022-12-18T01:06:12;9.82;89.99
75865;HTU21D;64510;46.704;38.274;2022-12-18T01:08:38;9.75;90.28
75865;HTU21D;64510;46.704;38.274;2022-12-18T01:11:13;9.72;90.17
75865;HTU21D;64510;46.704;38.274;2022-12-18T01:13:40;9.65;90.76
75865;HTU21D;64510;46.704;38.274;2022-12-18T01:16:07;9.62;90.47
75865;HTU21D;64510;46.704;38.274;2022-12-18T01:18:34;9.60;90.73
75865;HTU21D;64510;46.704;38.274;2022-12-18T01:21:02;9.55;90.73
75865;HTU21D;64510;46.704;38.274;2022-12-18T01:23:30;9.54;90.66
75865;HTU21D;64510;46.704;38.274;2022-12-18T01:26:07;9.55;90.55
75865;HTU21D;64510;46.704;38.274;2022-12-18T01:28:35;9.53;90.95
75865;HTU21D;64510;46.704;38.274;2022-12-18T01:31:44;9.54;90.95
75865;HTU21D;64510;46.704;38.274;2022-12-18T01:34:04;9.55;90.76
75865;HTU21D;64510;46.704;38.274;2022-12-18T01:36:35;9.57;90.87
75865;HTU21D;64510;46.704;38.274;2022-12-18T01:39:04;9.57;90.67
75865;HTU21D;64510;46.704;38.274;2022-12-18T01:41:31;9.60;90.98
75865;HTU21D;64510;46.704;38.274;2022-12-18T01:47:36;9.66;90.71
75865;HTU21D;64510;46.704;38.274;2022-12-18T01:50:51;9.67;90.72
75865;HTU21D;64510;46.704;38.274;2022-12-18T01:52:56;9.70;90.47
75865;HTU21D;64510;46.704;38.274;2022-12-18T01:55:26;9.72;90.52
75865;HTU21D;64510;46.704;38.274;2022-12-18T01:57:54;9.71;90.44
75865;HTU21D;64510;46.704;38.274;2022-12-18T02:00:22;9.74;90.39
75865;HTU21D;64510;46.704;38.274;2022-12-18T02:02:50;9.74;90.40
75865;HTU21D;64510;46.704;38.274;2022-12-18T02:08:13;9.76;90.40
75865;HTU21D;64510;46.704;38.274;2022-12-18T02:10:47;9.77;90.37
75865;HTU21D;64510;46.704;38.274;2022-12-18T02:16:28;9.79;90.08
75865;HTU21D;64510;46.704;38.274;2022-12-18T02:18:59;9.78;90.10
75865;HTU21D;64510;46.704;38.274;2022-12-18T02:24:48;9.77;90.29
75865;HTU21D;64510;46.704;38.274;2022-12-18T02:27:19;9.76;90.22
75865;HTU21D;64510;46.704;38.274;2022-12-18T02:29:54;9.76;90.23
75865;HTU21D;64510;46.704;38.274;2022-12-18T02:32:30;9.77;90.09
75865;HTU21D;64510;46.704;38.274;2022-12-18T02:34:59;9.78;90.09
75865;HTU21D;64510;46.704;38.274;2022-12-18T02:37:28;9.75;90.14
75865;HTU21D;64510;46.704;38.274;2022-12-18T02:39:57;9.76;90.07
75865;HTU21D;64510;46.704;38.274;2022-12-18T02:42:24;9.76;90.00
75865;HTU21D;64510;46.704;38.274;2022-12-18T02:44:51;9.74;89.86
75865;HTU21D;64510;46.704;38.274;2022-12-18T02:47:22;9.69;90.26
75865;HTU21D;64510;46.704;38.274;2022-12-18T03:01:18;9.60;90.13
75865;HTU21D;64510;46.704;38.274;2022-12-18T03:03:55;9.60;90.05
75865;HTU21D;64510;46.704;38.274;2022-12-18T03:09:42;9.61;90.06
75865;HTU21D;64510;46.704;38.274;2022-12-18T03:15:10;9.63;90.14
75865;HTU21D;64510;46.704;38.274;2022-12-18T03:17:40;9.64;90.04
75865;HTU21D;64510;46.704;38.274;2022-12-18T03:20:17;9.65;89.89
75865;HTU21D;64510;46.704;38.274;2022-12-18T03:22:48;9.66;90.00
75865;HTU21D;64510;46.704;38.274;2022-12-18T03:25:17;9.66;89.89
75865;HTU21D;64510;46.704;38.274;2022-12-18T03:27:51;9.66;89.96
75865;HTU21D;64510;46.704;38.274;2022-12-18T03:30:20;9.65;89.86
75865;HTU21D;64510;46.704;38.274;2022-12-18T03:32:48;9.65;89.77
75865;HTU21D;64510;46.704;38.274;2022-12-18T03:35:23;9.64;89.82
75865;HTU21D;64510;46.704;38.274;2022-12-18T03:37:50;9.64;89.95
75865;HTU21D;64510;46.704;38.274;2022-12-18T03:40:17;9.65;90.04
75865;HTU21D;64510;46.704;38.274;2022-12-18T03:42:52;9.64;89.94
75865;HTU21D;64510;46.704;38.274;2022-12-18T03:45:42;9.64;89.98
75865;HTU21D;64510;46.704;38.274;2022-12-18T03:48:38;9.62;90.01
75865;HTU21D;64510;46.704;38.274;2022-12-18T03:54:08;9.60;90.27
75865;HTU21D;64510;46.704;38.274;2022-12-18T03:56:50;9.62;90.26
75865;HTU21D;64510;46.704;38.274;2022-12-18T03:59:20;9.63;90.34
75865;HTU21D;64510;46.704;38.274;2022-12-18T04:01:52;9.63;90.21
75865;HTU21D;64510;46.704;38.274;2022-12-18T04:04:20;9.63;90.29
75865;HTU21D;64510;46.704;38.274;2022-12-18T04:06:48;9.66;90.39
75865;HTU21D;64510;46.704;38.274;2022-12-18T04:09:18;9.65;90.60
75865;HTU21D;64510;46.704;38.274;2022-12-18T04:11:46;9.65;90.82
75865;HTU21D;64510;46.704;38.274;2022-12-18T04:14:14;9.66;90.75
75865;HTU21D;64510;46.704;38.274;2022-12-18T04:16:40;9.66;90.74
75865;HTU21D;64510;46.704;38.274;2022-12-18T04:19:10;9.65;90.92
75865;HTU21D;64510;46.704;38.274;2022-12-18T04:21:40;9.66;90.92
75865;HTU21D;64510;46.704;38.274;2022-12-18T04:24:06;9.66;91.08
75865;HTU21D;64510;46.704;38.274;2022-12-18T04:26:35;9.65;91.27
75865;HTU21D;64510;46.704;38.274;2022-12-18T04:29:16;9.64;91.27
75865;HTU21D;64510;46.704;38.274;2022-12-18T04:31:42;9.65;91.31
75865;HTU21D;64510;46.704;38.274;2022-12-18T04:34:09;9.65;91.43
75865;HTU21D;64510;46.704;38.274;2022-12-18T04:36:41;9.65;91.66
75865;HTU21D;64510;46.704;38.274;2022-12-18T04:39:07;9.65;91.61
75865;HTU21D;64510;46.704;38.274;2022-12-18T04:41:35;9.66;91.91
75865;HTU21D;64510;46.704;38.274;2022-12-18T04:44:05;9.69;91.88
75865;HTU21D;64510;46.704;38.274;2022-12-18T04:46:31;9.70;92.01
75865;HTU21D;64510;46.704;38.274;2022-12-18T04:48:57;9.74;92.04
75865;HTU21D;64510;46.704;38.274;2022-12-18T04:51:23;9.77;92.30
75865;HTU21D;64510;46.704;38.274;2022-12-18T04:53:49;9.80;92.23
75865;HTU21D;64510;46.704;38.274;2022-12-18T04:56:15;9.85;92.26
75865;HTU21D;64510;46.704;38.274;2022-12-18T04:58:43;9.89;92.85
75865;HTU21D;64510;46.704;38.274;2022-12-18T05:01:10;9.93;92.91
75865;HTU21D;64510;46.704;38.274;2022-12-18T05:03:37;9.96;92.93
75865;HTU21D;64510;46.704;38.274;2022-12-18T05:06:04;10.00;92.81
75865;HTU21D;64510;46.704;38.274;2022-12-18T05:08:30;10.04;92.90
75865;HTU21D;64510;46.704;38.274;2022-12-18T05:11:06;10.08;93.13
75865;HTU21D;64510;46.704;38.274;2022-12-18T05:13:32;10.10;93.54
75865;HTU21D;64510;46.704;38.274;2022-12-18T05:15:59;10.12;93.40
75865;HTU21D;64510;46.704;38.274;2022-12-18T05:18:25;10.18;93.65
75865;HTU21D;64510;46.704;38.274;2022-12-18T05:20:53;10.21;93.39
75865;HTU21D;64510;46.704;38.274;2022-12-18T05:23:20;10.27;93.37
75865;HTU21D;64510;46.704;38.274;2022-12-18T05:25:53;10.34;93.87
75865;HTU21D;64510;46.704;38.274;2022-12-18T05:28:20;10.38;93.90
75865;HTU21D;64510;46.704;38.274;2022-12-18T05:30:50;10.44;93.70
75865;HTU21D;64510;46.704;38.274;2022-12-18T05:33:17;10.51;93.41
75865;HTU21D;64510;46.704;38.274;2022-12-18T05:35:44;10.56;93.50
75865;HTU21D;64510;46.704;38.274;2022-12-18T05:38:10;10.64;93.59
75865;HTU21D;64510;46.704;38.274;2022-12-18T05:40:36;10.70;93.72
75865;HTU21D;64510;46.704;38.274;2022-12-18T05:43:02;10.75;94.07
75865;HTU21D;64510;46.704;38.274;2022-12-18T05:45:30;10.81;93.85
75865;HTU21D;64510;46.704;38.274;2022-12-18T05:47:56;10.87;93.56
75865;HTU21D;64510;46.704;38.274;2022-12-18T05:50:22;10.93;93.68
75865;HTU21D;64510;46.704;38.274;2022-12-18T05:52:48;10.94;93.91
75865;HTU21D;64510;46.704;38.274;2022-12-18T05:55:14;10.98;93.57
75865;HTU21D;64510;46.704;38.274;2022-12-18T05:57:40;11.02;93.88
75865;HTU21D;64510;46.704;38.274;2022-12-18T06:00:06;11.05;93.89
75865;HTU21D;64510;46.704;38.274;2022-12-18T06:02:37;11.08;94.13
75865;HTU21D;64510;46.704;38.274;2022-12-18T06:05:04;11.11;93.86
75865;HTU21D;64510;46.704;38.274;2022-12-18T06:07:30;11.14;93.88
75865;HTU21D;64510;46.704;38.274;2022-12-18T06:09:55;11.17;93.73
75865;HTU21D;64510;46.704;38.274;2022-12-18T06:12:21;11.22;94.03
75865;HTU21D;64510;46.704;38.274;2022-12-18T06:14:47;11.22;94.00
75865;HTU21D;64510;46.704;38.274;2022-12-18T06:17:13;11.26;94.12
75865;HTU21D;64510;46.704;38.274;2022-12-18T06:19:39;11.28;94.11
75865;HTU21D;64510;46.704;38.274;2022-12-18T06:22:05;11.29;93.77
75865;HTU21D;64510;46.704;38.274;2022-12-18T06:24:31;11.32;93.82
75865;HTU21D;64510;46.704;38.274;2022-12-18T06:26:58;11.31;94.07
75865;HTU21D;64510;46.704;38.274;2022-12-18T06:29:24;11.32;94.33
75865;HTU21D;64510;46.704;38.274;2022-12-18T06:31:50;11.29;94.50
75865;HTU21D;64510;46.704;38.274;2022-12-18T06:34:19;11.28;94.22
75865;HTU21D;64510;46.704;38.274;2022-12-18T06:36:45;11.22;94.30
75865;HTU21D;64510;46.704;38.274;2022-12-18T06:39:11;11.19;94.36
75865;HTU21D;64510;46.704;38.274;2022-12-18T06:41:36;11.14;94.47
75865;HTU21D;64510;46.704;38.274;2022-12-18T06:44:02;11.10;94.53
75865;HTU21D;64510;46.704;38.274;2022-12-18T06:46:28;11.09;94.54
75865;HTU21D;64510;46.704;38.274;2022-12-18T06:48:54;11.02;94.82
75865;HTU21D;64510;46.704;38.274;2022-12-18T06:51:22;10.99;94.90
75865;HTU21D;64510;46.704;38.274;2022-12-18T06:53:48;10.97;95.28
75865;HTU21D;64510;46.704;38.274;2022-12-18T06:56:14;10.95;95.33
75865;HTU21D;64510;46.704;38.274;2022-12-18T06:58:40;10.94;95.07
75865;HTU21D;64510;46.704;38.274;2022-12-18T07:01:09;10.88;95.00
75865;HTU21D;64510;46.704;38.274;2022-12-18T07:03:36;10.83;95.20
75865;HTU21D;64510;46.704;38.274;2022-12-18T07:06:02;10.81;95.23
75865;HTU21D;64510;46.704;38.274;2022-12-18T07:08:30;10.77;95.31
75865;HTU21D;64510;46.704;38.274;2022-12-18T07:10:57;10.74;95.30
75865;HTU21D;64510;46.704;38.274;2022-12-18T07:13:23;10.72;95.37
75865;HTU21D;64510;46.704;38.274;2022-12-18T07:15:49;10.73;95.71
75865;HTU21D;64510;46.704;38.274;2022-12-18T07:18:15;10.74;95.76
75865;HTU21D;64510;46.704;38.274;2022-12-18T07:20:41;10.75;95.65
75865;HTU21D;64510;46.704;38.274;2022-12-18T07:23:10;10.78;95.78
75865;HTU21D;64510;46.704;38.274;2022-12-18T07:25:36;10.80;95.73
75865;HTU21D;64510;46.704;38.274;2022-12-18T07:28:03;10.84;95.69
75865;HTU21D;64510;46.704;38.274;2022-12-18T07:30:29;10.85;95.62
75865;HTU21D;64510;46.704;38.274;2022-12-18T07:32:55;10.86;95.62
75865;HTU21D;64510;46.704;38.274;2022-12-18T07:35:21;10.86;95.65
75865;HTU21D;64510;46.704;38.274;2022-12-18T07:37:47;10.85;95.61
75865;HTU21D;64510;46.704;38.274;2022-12-18T07:40:13;10.86;95.62
75865;HTU21D;64510;46.704;38.274;2022-12-18T07:42:39;10.88;95.93
75865;HTU21D;64510;46.704;38.274;2022-12-18T07:45:05;10.89;96.19
75865;HTU21D;64510;46.704;38.274;2022-12-18T07:47:35;10.92;96.02
75865;HTU21D;64510;46.704;38.274;2022-12-18T07:50:04;10.89;96.08
75865;HTU21D;64510;46.704;38.274;2022-12-18T07:52:30;10.89;96.24
75865;HTU21D;64510;46.704;38.274;2022-12-18T07:54:56;10.88;95.91
75865;HTU21D;64510;46.704;38.274;2022-12-18T07:57:22;10.88;95.84
75865;HTU21D;64510;46.704;38.274;2022-12-18T07:59:48;10.87;95.69
75865;HTU21D;64510;46.704;38.274;2022-12-18T08:02:14;10.84;95.76
75865;HTU21D;64510;46.704;38.274;2022-12-18T08:04:40;10.81;95.77
75865;HTU21D;64510;46.704;38.274;2022-12-18T08:07:06;10.79;95.68
75865;HTU21D;64510;46.704;38.274;2022-12-18T08:09:32;10.77;96.06
75865;HTU21D;64510;46.704;38.274;2022-12-18T08:11:58;10.74;96.46
75865;HTU21D;64510;46.704;38.274;2022-12-18T08:14:24;10.74;96.10
75865;HTU21D;64510;46.704;38.274;2022-12-18T08:16:50;10.74;96.09
75865;HTU21D;64510;46.704;38.274;2022-12-18T08:19:16;10.72;96.26
75865;HTU21D;64510;46.704;38.274;2022-12-18T08:21:42;10.74;95.95
75865;HTU21D;64510;46.704;38.274;2022-12-18T08:24:09;10.74;95.91
75865;HTU21D;64510;46.704;38.274;2022-12-18T08:26:34;10.73;96.06
75865;HTU21D;64510;46.704;38.274;2022-12-18T08:29:00;10.73;96.45
75865;HTU21D;64510;46.704;38.274;2022-12-18T08:31:28;10.74;95.92
75865;HTU21D;64510;46.704;38.274;2022-12-18T08:33:55;10.73;96.18
75865;HTU21D;64510;46.704;38.274;2022-12-18T08:36:21;10.71;96.39
75865;HTU21D;64510;46.704;38.274;2022-12-18T08:38:48;10.70;96.14
75865;HTU21D;64510;46.704;38.274;2022-12-18T08:41:15;10.67;96.15
75865;HTU21D;64510;46.704;38.274;2022-12-18T08:43:42;10.62;96.12
75865;HTU21D;64510;46.704;38.274;2022-12-18T08:46:30;10.57;96.02
75865;HTU21D;64510;46.704;38.274;2022-12-18T08:48:57;10.51;96.65
75865;HTU21D;64510;46.704;38.274;2022-12-18T08:51:23;10.46;96.32
75865;HTU21D;64510;46.704;38.274;2022-12-18T08:53:49;10.43;96.36
75865;HTU21D;64510;46.704;38.274;2022-12-18T08:56:16;10.42;96.18
75865;HTU21D;64510;46.704;38.274;2022-12-18T08:58:42;10.38;96.62
75865;HTU21D;64510;46.704;38.274;2022-12-18T09:01:09;10.37;96.32
75865;HTU21D;64510;46.704;38.274;2022-12-18T09:03:36;10.37;96.29
75865;HTU21D;64510;46.704;38.274;2022-12-18T09:06:03;10.35;96.39
75865;HTU21D;64510;46.704;38.274;2022-12-18T09:08:29;10.34;96.28
75865;HTU21D;64510;46.704;38.274;2022-12-18T09:10:55;10.30;96.53
75865;HTU21D;64510;46.704;38.274;2022-12-18T09:13:21;10.28;97.10
75865;HTU21D;64510;46.704;38.274;2022-12-18T09:15:50;10.29;96.92
75865;HTU21D;64510;46.704;38.274;2022-12-18T09:18:18;10.27;96.62
75865;HTU21D;64510;46.704;38.274;2022-12-18T09:20:44;10.26;96.62
75865;HTU21D;64510;46.704;38.274;2022-12-18T09:23:11;10.27;96.52
75865;HTU21D;64510;46.704;38.274;2022-12-18T09:25:37;10.26;96.62
75865;HTU21D;64510;46.704;38.274;2022-12-18T09:28:06;10.23;96.50
75865;HTU21D;64510;46.704;38.274;2022-12-18T09:30:32;10.19;96.53
75865;HTU21D;64510;46.704;38.274;2022-12-18T09:33:01;10.18;96.46
75865;HTU21D;64510;46.704;38.274;2022-12-18T09:35:27;10.14;96.49
75865;HTU21D;64510;46.704;38.274;2022-12-18T09:37:56;10.10;96.50
75865;HTU21D;64510;46.704;38.274;2022-12-18T09:40:26;10.09;96.75
75865;HTU21D;64510;46.704;38.274;2022-12-18T09:43:03;10.09;96.60
75865;HTU21D;64510;46.704;38.274;2022-12-18T09:45:51;10.04;96.66
75865;HTU21D;64510;46.704;38.274;2022-12-18T09:50:51;9.96;96.73
75865;HTU21D;64510;46.704;38.274;2022-12-18T09:53:23;9.91;96.66
75865;HTU21D;64510;46.704;38.274;2022-12-18T09:55:51;9.85;96.78
75865;HTU21D;64510;46.704;38.274;2022-12-18T09:58:30;9.80;96.87
75865;HTU21D;64510;46.704;38.274;2022-12-18T10:00:57;9.71;97.43
75865;HTU21D;64510;46.704;38.274;2022-12-18T10:03:23;9.69;97.25
75865;HTU21D;64510;46.704;38.274;2022-12-18T10:09:15;9.61;97.64
75865;HTU21D;64510;46.704;38.274;2022-12-18T10:11:25;9.56;97.61
75865;HTU21D;64510;46.704;38.274;2022-12-18T10:22:44;9.56;99.23
75865;HTU21D;64510;46.704;38.274;2022-12-18T10:25:34;9.57;98.64
75865;HTU21D;64510;46.704;38.274;2022-12-18T10:28:11;9.56;98.93
75865;HTU21D;64510;46.704;38.274;2022-12-18T10:30:39;9.53;98.88
75865;HTU21D;64510;46.704;38.274;2022-12-18T10:33:05;9.51;98.71
75865;HTU21D;64510;46.704;38.274;2022-12-18T10:35:32;9.55;98.55
75865;HTU21D;64510;46.704;38.274;2022-12-18T10:40:55;9.56;98.71
75865;HTU21D;64510;46.704;38.274;2022-12-18T10:43:33;9.55;98.26
75865;HTU21D;64510;46.704;38.274;2022-12-18T10:48:54;9.44;97.59
75865;HTU21D;64510;46.704;38.274;2022-12-18T10:54:06;9.16;96.87
75865;HTU21D;64510;46.704;38.274;2022-12-18T10:56:39;8.96;96.71
75865;HTU21D;64510;46.704;38.274;2022-12-18T10:59:07;8.76;96.53
75865;HTU21D;64510;46.704;38.274;2022-12-18T11:04:17;8.39;96.39
75865;HTU21D;64510;46.704;38.274;2022-12-18T11:07:01;8.22;96.52
75865;HTU21D;64510;46.704;38.274;2022-12-18T11:09:33;8.08;96.61
75865;HTU21D;64510;46.704;38.274;2022-12-18T11:12:25;7.97;96.65
75865;HTU21D;64510;46.704;38.274;2022-12-18T11:14:51;7.76;97.05
75865;HTU21D;64510;46.704;38.274;2022-12-18T11:17:21;0.00;97.22
75865;HTU21D;64510;46.704;38.274;2022-12-18T11:20:07;0.00;97.70
75865;HTU21D;64510;46.704;38.274;2022-12-18T11:22:54;7.38;97.98
75865;HTU21D;64510;46.704;38.274;2022-12-18T11:25:21;7.32;97.80
75865;HTU21D;64510;46.704;38.274;2022-12-18T11:27:51;7.26;97.87
75865;HTU21D;64510;46.704;38.274;2022-12-18T11:30:27;7.17;97.94
75865;HTU21D;64510;46.704;38.274;2022-12-18T11:35:49;7.08;97.79
75865;HTU21D;64510;46.704;38.274;2022-12-18T11:38:26;6.97;98.02
75865;HTU21D;64510;46.704;38.274;2022-12-18T11:41:05;6.95;97.78
75865;HTU21D;64510;46.704;38.274;2022-12-18T11:43:41;6.87;97.72
75865;HTU21D;64510;46.704;38.274;2022-12-18T11:46:14;6.74;97.82
75865;HTU21D;64510;46.704;38.274;2022-12-18T11:49:52;6.73;97.81
75865;HTU21D;64510;46.704;38.274;2022-12-18T11:52:09;6.69;98.13
75865;HTU21D;64510;46.704;38.274;2022-12-18T11:54:35;6.69;97.99
75865;HTU21D;64510;46.704;38.274;2022-12-18T12:00:18;6.55;97.97
75865;HTU21D;64510;46.704;38.274;2022-12-18T12:14:21;5.96;99.19
75865;HTU21D;64510;46.704;38.274;2022-12-18T12:31:07;5.75;98.45
75865;HTU21D;64510;46.704;38.274;2022-12-18T12:39:18;5.66;98.00
75865;HTU21D;64510;46.704;38.274;2022-12-18T12:41:49;5.62;98.16
75865;HTU21D;64510;46.704;38.274;2022-12-18T12:44:47;5.54;98.19
75865;HTU21D;64510;46.704;38.274;2022-12-18T12:47:18;5.57;98.01
75865;HTU21D;64510;46.704;38.274;2022-12-18T12:49:46;5.52;98.14
75865;HTU21D;64510;46.704;38.274;2022-12-18T12:52:30;5.52;97.98
75865;HTU21D;64510;46.704;38.274;2022-12-18T12:54:58;5.46;98.03
75865;HTU21D;64510;46.704;38.274;2022-12-18T12:57:36;5.41;97.89
75865;HTU21D;64510;46.704;38.274;2022-12-18T13:00:15;5.33;98.33
75865;HTU21D;64510;46.704;38.274;2022-12-18T13:02:56;5.33;98.29
75865;HTU21D;64510;46.704;38.274;2022-12-18T13:08:11;5.10;98.54
75865;HTU21D;64510;46.704;38.274;2022-12-18T13:10:40;5.04;99.13
75865;HTU21D;64510;46.704;38.274;2022-12-18T13:13:08;4.93;99.50
75865;HTU21D;64510;46.704;38.274;2022-12-18T13:18:21;4.88;99.44
75865;HTU21D;64510;46.704;38.274;2022-12-18T13:20:50;4.80;99.71
75865;HTU21D;64510;46.704;38.274;2022-12-18T13:34:21;4.62;98.97
75865;HTU21D;64510;46.704;38.274;2022-12-18T13:36:51;4.58;98.74
75865;HTU21D;64510;46.704;38.274;2022-12-18T13:41:45;4.58;98.21
75865;HTU21D;64510;46.704;38.274;2022-12-18T13:46:51;4.45;97.65
75865;HTU21D;64510;46.704;38.274;2022-12-18T13:49:25;4.47;97.64
75865;HTU21D;64510;46.704;38.274;2022-12-18T13:51:54;4.43;97.54
75865;HTU21D;64510;46.704;38.274;2022-12-18T13:54:36;4.45;97.39
75865;HTU21D;64510;46.704;38.274;2022-12-18T13:57:04;4.46;97.36
75865;HTU21D;64510;46.704;38.274;2022-12-18T13:59:37;4.44;97.51
75865;HTU21D;64510;46.704;38.274;2022-12-18T14:02:15;4.41;97.65
75865;HTU21D;64510;46.704;38.274;2022-12-18T14:04:45;4.42;97.59
75865;HTU21D;64510;46.704;38.274;2022-12-18T14:07:32;4.47;97.19
75865;HTU21D;64510;46.704;38.274;2022-12-18T14:09:59;4.46;97.17
75865;HTU21D;64510;46.704;38.274;2022-12-18T14:12:33;4.48;96.88
75865;HTU21D;64510;46.704;38.274;2022-12-18T14:18:17;4.47;95.68
75865;HTU21D;64510;46.704;38.274;2022-12-18T14:20:49;4.45;96.03
75865;HTU21D;64510;46.704;38.274;2022-12-18T14:23:41;4.38;95.38
75865;HTU21D;64510;46.704;38.274;2022-12-18T14:26:26;4.33;95.81
75865;HTU21D;64510;46.704;38.274;2022-12-18T14:28:56;4.22;95.74
75865;HTU21D;64510;46.704;38.274;2022-12-18T14:31:25;4.16;95.96
75865;HTU21D;64510;46.704;38.274;2022-12-18T14:33:52;4.18;96.17
75865;HTU21D;64510;46.704;38.274;2022-12-18T14:36:22;4.18;95.79
75865;HTU21D;64510;46.704;38.274;2022-12-18T14:38:55;4.17;95.55
75865;HTU21D;64510;46.704;38.274;2022-12-18T14:41:22;4.19;95.68
75865;HTU21D;64510;46.704;38.274;2022-12-18T14:43:50;4.17;95.71
75865;HTU21D;64510;46.704;38.274;2022-12-18T14:49:00;4.12;95.52
75865;HTU21D;64510;46.704;38.274;2022-12-18T14:51:29;4.10;95.39
75865;HTU21D;64510;46.704;38.274;2022-12-18T14:53:59;4.16;95.49
75865;HTU21D;64510;46.704;38.274;2022-12-18T14:56:28;4.16;95.39
75865;HTU21D;64510;46.704;38.274;2022-12-18T14:59:00;4.14;95.40
75865;HTU21D;64510;46.704;38.274;2022-12-18T15:01:38;4.09;95.42
75865;HTU21D;64510;46.704;38.274;2022-12-18T15:04:39;4.03;95.52
75865;HTU21D;64510;46.704;38.274;2022-12-18T15:07:20;4.03;95.76
75865;HTU21D;64510;46.704;38.274;2022-12-18T15:10:11;3.99;95.46
75865;HTU21D;64510;46.704;38.274;2022-12-18T15:12:41;3.99;95.56
75865;HTU21D;64510;46.704;38.274;2022-12-18T15:21:09;3.98;95.30
75865;HTU21D;64510;46.704;38.274;2022-12-18T15:26:13;3.94;95.23
75865;HTU21D;64510;46.704;38.274;2022-12-18T15:28:44;3.99;95.36
75865;HTU21D;64510;46.704;38.274;2022-12-18T15:33:45;4.04;95.09
75865;HTU21D;64510;46.704;38.274;2022-12-18T15:36:25;4.06;95.12
75865;HTU21D;64510;46.704;38.274;2022-12-18T15:38:53;4.05;95.12
75865;HTU21D;64510;46.704;38.274;2022-12-18T15:41:21;4.13;95.13
75865;HTU21D;64510;46.704;38.274;2022-12-18T15:43:49;4.20;94.88
75865;HTU21D;64510;46.704;38.274;2022-12-18T15:46:18;4.27;94.69
75865;HTU21D;64510;46.704;38.274;2022-12-18T15:48:46;4.28;94.59
75865;HTU21D;64510;46.704;38.274;2022-12-18T15:51:23;4.30;94.57
75865;HTU21D;64510;46.704;38.274;2022-12-18T15:53:54;4.32;94.38
75865;HTU21D;64510;46.704;38.274;2022-12-18T15:56:20;4.33;94.39
75865;HTU21D;64510;46.704;38.274;2022-12-18T15:59:11;4.30;94.43
75865;HTU21D;64510;46.704;38.274;2022-12-18T16:01:38;4.28;94.46
75865;HTU21D;64510;46.704;38.274;2022-12-18T16:04:04;4.35;94.44
75865;HTU21D;64510;46.704;38.274;2022-12-18T16:06:30;4.42;94.49
75865;HTU21D;64510;46.704;38.274;2022-12-18T16:08:55;4.46;94.35
75865;HTU21D;64510;46.704;38.274;2022-12-18T16:11:27;4.48;94.02
75865;HTU21D;64510;46.704;38.274;2022-12-18T16:14:20;4.48;94.04
75865;HTU21D;64510;46.704;38.274;2022-12-18T16:16:51;4.48;94.12
75865;HTU21D;64510;46.704;38.274;2022-12-18T16:19:18;4.48;94.09
75865;HTU21D;64510;46.704;38.274;2022-12-18T16:21:45;4.49;94.10
75865;HTU21D;64510;46.704;38.274;2022-12-18T16:24:19;4.50;94.07
75865;HTU21D;64510;46.704;38.274;2022-12-18T16:26:48;4.50;94.07
75865;HTU21D;64510;46.704;38.274;2022-12-18T16:29:14;4.46;94.22
75865;HTU21D;64510;46.704;38.274;2022-12-18T16:31:40;4.49;94.05
75865;HTU21D;64510;46.704;38.274;2022-12-18T16:34:28;4.48;94.04
75865;HTU21D;64510;46.704;38.274;2022-12-18T16:36:59;4.48;94.14
75865;HTU21D;64510;46.704;38.274;2022-12-18T16:39:26;4.46;93.95
75865;HTU21D;64510;46.704;38.274;2022-12-18T16:41:53;4.45;93.75
75865;HTU21D;64510;46.704;38.274;2022-12-18T16:44:20;4.38;93.59
75865;HTU21D;64510;46.704;38.274;2022-12-18T16:46:46;4.38;93.77
75865;HTU21D;64510;46.704;38.274;2022-12-18T16:49:14;4.38;93.82
75865;HTU21D;64510;46.704;38.274;2022-12-18T16:51:40;4.38;93.64
75865;HTU21D;64510;46.704;38.274;2022-12-18T16:54:06;4.43;93.47
75865;HTU21D;64510;46.704;38.274;2022-12-18T16:56:32;4.41;92.88
75865;HTU21D;64510;46.704;38.274;2022-12-18T16:59:00;4.41;92.62
75865;HTU21D;64510;46.704;38.274;2022-12-18T17:01:27;4.44;92.75
75865;HTU21D;64510;46.704;38.274;2022-12-18T17:03:58;4.38;92.36
75865;HTU21D;64510;46.704;38.274;2022-12-18T17:06:26;4.36;92.24
75865;HTU21D;64510;46.704;38.274;2022-12-18T17:09:03;4.38;92.59
75865;HTU21D;64510;46.704;38.274;2022-12-18T17:11:32;4.41;92.47
75865;HTU21D;64510;46.704;38.274;2022-12-18T17:13:59;4.39;92.49
75865;HTU21D;64510;46.704;38.274;2022-12-18T17:16:25;4.43;92.50
75865;HTU21D;64510;46.704;38.274;2022-12-18T17:18:52;4.44;92.43
75865;HTU21D;64510;46.704;38.274;2022-12-18T17:21:18;4.46;92.35
75865;HTU21D;64510;46.704;38.274;2022-12-18T17:23:44;4.43;92.43
75865;HTU21D;64510;46.704;38.274;2022-12-18T17:26:13;4.44;92.39
75865;HTU21D;64510;46.704;38.274;2022-12-18T17:28:40;4.43;92.40
75865;HTU21D;64510;46.704;38.274;2022-12-18T17:31:11;4.39;92.53
75865;HTU21D;64510;46.704;38.274;2022-12-18T17:33:37;4.38;92.65
75865;HTU21D;64510;46.704;38.274;2022-12-18T17:36:06;4.42;92.71
75865;HTU21D;64510;46.704;38.274;2022-12-18T17:38:32;4.39;92.88
75865;HTU21D;64510;46.704;38.274;2022-12-18T17:41:02;4.39;93.24
75865;HTU21D;64510;46.704;38.274;2022-12-18T17:43:28;4.32;93.54